createdAt,value
2023-05-14T00:01:09.895Z,13.48
2023-05-14T00:03:37.519Z,13.39
2023-05-14T00:06:04.384Z,13.67
2023-05-14T00:08:30.931Z,13.39
2023-05-14T00:10:57.529Z,13.42
2023-05-14T00:13:24.251Z,13.26
2023-05-14T00:15:51.089Z,13.26
2023-05-14T00:18:18.101Z,13.39
2023-05-14T00:20:44.691Z,13.30
2023-05-14T00:23:11.454Z,13.10
2023-05-14T00:25:38.345Z,13.19
2023-05-14T00:28:05.200Z,13.19
2023-05-14T00:30:32.671Z,12.99
2023-05-14T00:32:59.453Z,13.18
2023-05-14T00:35:26.071Z,13.08
2023-05-14T00:37:52.800Z,13.20
2023-05-14T00:40:19.896Z,13.31
2023-05-14T00:42:46.512Z,13.25
2023-05-14T00:45:13.368Z,13.11
2023-05-14T00:47:40.388Z,13.26
2023-05-14T00:50:07.464Z,13.29
2023-05-14T00:52:34.287Z,13.27
2023-05-14T00:55:04.289Z,13.20
2023-05-14T00:57:31.070Z,13.20
2023-05-14T00:59:58.926Z,13.14
2023-05-14T01:02:26.429Z,13.16
2023-05-14T01:04:53.827Z,13.10
2023-05-14T01:07:47.000Z,13.16
2023-05-14T01:10:24.646Z,13.32
2023-05-14T01:13:38.144Z,13.32
2023-05-14T01:16:08.288Z,13.23
2023-05-14T01:18:35.401Z,13.33
2023-05-14T01:21:02.071Z,13.24
2023-05-14T01:23:28.761Z,13.19
2023-05-14T01:25:55.737Z,13.11
2023-05-14T01:28:32.659Z,13.05
2023-05-14T01:31:18.275Z,13.13
2023-05-14T01:33:48.375Z,13.17
2023-05-14T01:36:15.612Z,13.19
2023-05-14T01:38:45.772Z,13.15
2023-05-14T01:41:14.415Z,13.15
2023-05-14T01:43:41.400Z,13.25
2023-05-14T01:46:08.135Z,13.19
2023-05-14T01:48:35.097Z,13.13
2023-05-14T01:51:02.547Z,12.93
2023-05-14T01:53:29.184Z,13.10
2023-05-14T01:55:56.025Z,13.03
2023-05-14T01:58:22.738Z,13.06
2023-05-14T02:00:49.311Z,13.09
2023-05-14T02:03:15.867Z,13.08
2023-05-14T02:05:42.503Z,13.20
2023-05-14T02:08:09.122Z,13.10
2023-05-14T02:10:36.061Z,12.89
2023-05-14T02:13:03.839Z,12.92
2023-05-14T02:15:30.838Z,13.01
2023-05-14T02:17:57.469Z,12.87
2023-05-14T02:20:24.266Z,12.90
2023-05-14T02:22:51.346Z,12.92
2023-05-14T02:25:17.976Z,13.03
2023-05-14T02:27:44.793Z,13.09
2023-05-14T02:30:12.632Z,13.05
2023-05-14T02:32:39.397Z,13.02
2023-05-14T02:35:06.828Z,13.07
2023-05-14T02:37:34.775Z,12.94
2023-05-14T02:40:01.529Z,13.00
2023-05-14T02:42:28.148Z,12.79
2023-05-14T02:44:54.851Z,12.70
2023-05-14T02:47:21.654Z,12.75
2023-05-14T02:49:48.515Z,12.78
2023-05-14T02:52:15.091Z,12.68
2023-05-14T02:54:41.848Z,12.82
2023-05-14T02:57:08.675Z,12.84
2023-05-14T02:59:36.230Z,12.78
2023-05-14T03:02:03.451Z,12.73
2023-05-14T03:04:30.398Z,12.63
2023-05-14T03:06:57.087Z,12.59
2023-05-14T03:09:23.901Z,12.60
2023-05-14T03:11:50.819Z,12.56
2023-05-14T03:14:17.578Z,12.49
2023-05-14T03:16:44.224Z,12.46
2023-05-14T03:19:12.044Z,12.43
2023-05-14T03:21:38.820Z,12.45
2023-05-14T03:24:05.791Z,12.40
2023-05-14T03:26:32.380Z,12.36
2023-05-14T03:28:58.948Z,12.40
2023-05-14T03:31:25.860Z,12.35
2023-05-14T03:33:52.578Z,12.48
2023-05-14T03:36:19.169Z,12.49
2023-05-14T03:38:47.596Z,12.45
2023-05-14T03:41:15.243Z,12.34
2023-05-14T03:43:42.410Z,12.25
2023-05-14T03:46:09.468Z,12.29
2023-05-14T03:48:36.326Z,12.35
2023-05-14T03:51:04.866Z,12.24
2023-05-14T03:53:31.632Z,12.41
2023-05-14T03:55:58.269Z,12.45
2023-05-14T03:58:24.874Z,12.37
2023-05-14T04:00:51.457Z,12.24
2023-05-14T04:03:18.179Z,12.27
2023-05-14T04:05:44.808Z,12.22
2023-05-14T04:08:12.146Z,12.18
2023-05-14T04:10:38.728Z,12.25
2023-05-14T04:13:05.365Z,12.23
2023-05-14T04:15:39.383Z,12.33
2023-05-14T04:18:06.290Z,12.33
2023-05-14T04:20:33.110Z,12.23
2023-05-14T04:22:59.829Z,12.31
2023-05-14T04:25:26.337Z,12.26
2023-05-14T04:27:53.033Z,12.28
2023-05-14T04:30:19.883Z,12.29
2023-05-14T04:32:46.672Z,12.21
2023-05-14T04:35:13.309Z,12.39
2023-05-14T04:37:40.488Z,12.32
2023-05-14T04:40:11.068Z,12.32
2023-05-14T04:42:37.721Z,12.46
2023-05-14T04:45:06.212Z,12.55
2023-05-14T04:47:32.913Z,12.56
2023-05-14T04:49:59.475Z,12.66
2023-05-14T04:52:26.324Z,12.77
2023-05-14T04:54:53.047Z,12.66
2023-05-14T04:57:19.783Z,12.61
2023-05-14T04:59:46.374Z,12.67
2023-05-14T05:02:12.977Z,12.75
2023-05-14T05:04:39.598Z,12.76
2023-05-14T05:07:06.334Z,12.92
2023-05-14T05:09:33.039Z,12.94
2023-05-14T05:12:01.446Z,13.00
2023-05-14T05:14:28.099Z,13.03
2023-05-14T05:16:54.790Z,13.07
2023-05-14T05:19:29.105Z,13.11
2023-05-14T05:21:56.091Z,13.15
2023-05-14T05:24:22.705Z,13.17
2023-05-14T05:26:50.184Z,13.20
2023-05-14T05:29:16.884Z,13.24
2023-05-14T05:31:43.632Z,13.27
2023-05-14T05:34:10.348Z,13.30
2023-05-14T05:36:36.904Z,13.36
2023-05-14T05:39:03.507Z,13.33
2023-05-14T05:41:30.362Z,13.30
2023-05-14T05:43:56.976Z,13.33
2023-05-14T05:46:23.564Z,13.49
2023-05-14T05:48:50.075Z,13.59
2023-05-14T05:51:16.679Z,13.57
2023-05-14T05:53:43.356Z,13.57
2023-05-14T05:56:09.976Z,13.65
2023-05-14T05:58:37.154Z,13.60
2023-05-14T06:01:03.935Z,13.46
2023-05-14T06:03:30.715Z,13.47
2023-05-14T06:05:57.672Z,13.48
2023-05-14T06:08:24.297Z,13.44
2023-05-14T06:10:51.048Z,13.23
2023-05-14T06:13:17.660Z,13.36
2023-05-14T06:15:44.301Z,13.25
2023-05-14T06:18:10.964Z,13.15
2023-05-14T06:20:37.770Z,13.09
2023-05-14T06:23:04.429Z,13.29
2023-05-14T06:25:31.086Z,13.34
2023-05-14T06:27:57.681Z,13.36
2023-05-14T06:30:24.627Z,13.45
2023-05-14T06:32:51.878Z,13.45
2023-05-14T06:35:19.257Z,13.50
2023-05-14T06:37:45.973Z,13.48
2023-05-14T06:40:15.742Z,13.60
2023-05-14T06:42:42.531Z,13.57
2023-05-14T06:45:09.417Z,13.50
2023-05-14T06:47:37.190Z,13.51
2023-05-14T06:50:04.332Z,13.38
2023-05-14T06:52:31.032Z,13.40
2023-05-14T06:54:57.696Z,13.37
2023-05-14T06:57:24.687Z,13.31
2023-05-14T06:59:51.280Z,13.28
2023-05-14T07:02:17.895Z,13.37
2023-05-14T07:04:44.497Z,13.57
2023-05-14T07:07:15.210Z,13.78
2023-05-14T07:09:42.273Z,13.88
2023-05-14T07:12:09.143Z,14.07
2023-05-14T07:14:35.702Z,14.42
2023-05-14T07:17:02.336Z,14.66
2023-05-14T07:19:30.129Z,14.96
2023-05-14T07:21:57.742Z,15.31
2023-05-14T07:24:24.173Z,15.54
2023-05-14T07:26:50.896Z,15.55
2023-05-14T07:29:17.558Z,15.83
2023-05-14T07:31:44.224Z,15.79
2023-05-14T07:34:11.590Z,16.04
2023-05-14T07:36:38.635Z,16.42
2023-05-14T07:39:05.431Z,16.18
2023-05-14T07:41:32.116Z,16.34
2023-05-14T07:43:58.683Z,16.85
2023-05-14T07:46:25.881Z,17.55
2023-05-14T07:48:52.459Z,18.08
2023-05-14T07:51:19.035Z,18.00
2023-05-14T07:53:45.791Z,18.11
2023-05-14T07:56:12.420Z,18.49
2023-05-14T07:58:39.205Z,18.56
2023-05-14T08:01:09.088Z,18.80
2023-05-14T08:03:36.247Z,18.90
2023-05-14T08:06:04.104Z,18.66
2023-05-14T08:08:30.822Z,17.75
2023-05-14T08:10:57.526Z,17.42
2023-05-14T08:13:24.280Z,16.96
2023-05-14T08:15:51.330Z,16.75
2023-05-14T08:18:18.039Z,17.32
2023-05-14T08:20:44.667Z,17.35
2023-05-14T08:23:11.406Z,16.72
2023-05-14T08:25:38.074Z,16.48
2023-05-14T08:28:04.943Z,15.76
2023-05-14T08:30:31.630Z,16.07
2023-05-14T08:32:58.931Z,15.98
2023-05-14T08:35:25.782Z,16.10
2023-05-14T08:37:52.568Z,15.76
2023-05-14T08:40:19.409Z,16.49
2023-05-14T08:42:47.568Z,16.71
2023-05-14T08:45:19.819Z,16.67
2023-05-14T08:47:51.140Z,16.34
2023-05-14T08:50:21.916Z,16.72
2023-05-14T08:52:49.977Z,16.92
2023-05-14T08:55:16.670Z,16.96
2023-05-14T08:57:43.387Z,16.62
2023-05-14T09:00:13.448Z,17.95
2023-05-14T09:02:41.648Z,18.21
2023-05-14T09:05:09.304Z,18.63
2023-05-14T09:07:36.506Z,18.45
2023-05-14T09:10:04.002Z,18.94
2023-05-14T09:12:31.188Z,18.35
2023-05-14T09:14:57.975Z,17.20
2023-05-14T09:17:27.601Z,16.48
2023-05-14T09:19:54.689Z,16.65
2023-05-14T09:22:21.589Z,16.75
2023-05-14T09:25:03.501Z,17.31
2023-05-14T09:27:31.906Z,16.72
2023-05-14T09:30:10.189Z,17.15
2023-05-14T09:32:38.812Z,18.61
2023-05-14T09:35:19.078Z,19.04
2023-05-14T09:37:51.178Z,19.47
2023-05-14T09:40:20.280Z,19.83
2023-05-14T09:42:49.012Z,20.32
2023-05-14T09:45:16.891Z,19.75
2023-05-14T09:47:45.163Z,20.76
2023-05-14T09:50:12.262Z,20.81
2023-05-14T09:52:39.510Z,20.70
2023-05-14T09:55:06.985Z,21.81
2023-05-14T09:57:34.561Z,21.28
2023-05-14T10:00:01.410Z,22.61
2023-05-14T10:02:41.307Z,22.90
2023-05-14T10:05:08.929Z,22.26
2023-05-14T10:07:41.652Z,22.46
2023-05-14T10:10:13.707Z,22.70
2023-05-14T10:12:40.872Z,22.86
2023-05-14T10:15:16.660Z,22.89
2023-05-14T10:17:49.945Z,20.70
2023-05-14T10:20:17.579Z,20.16
2023-05-14T10:22:44.398Z,20.36
2023-05-14T10:25:11.557Z,19.91
2023-05-14T10:27:38.985Z,19.53
2023-05-14T10:30:10.473Z,20.80
2023-05-14T10:32:38.109Z,21.08
2023-05-14T10:35:17.145Z,21.38
2023-05-14T10:37:45.082Z,21.39
2023-05-14T10:40:13.331Z,20.57
2023-05-14T10:42:40.928Z,20.52
2023-05-14T10:45:09.255Z,19.90
2023-05-14T10:47:37.371Z,20.01
2023-05-14T10:50:06.117Z,20.74
2023-05-14T10:52:33.947Z,21.25
2023-05-14T10:55:07.791Z,20.24
2023-05-14T10:57:36.579Z,20.15
2023-05-14T11:00:03.789Z,20.26
2023-05-14T11:02:37.665Z,21.18
2023-05-14T11:05:08.241Z,20.99
2023-05-14T11:07:37.921Z,20.74
2023-05-14T11:10:09.350Z,20.68
2023-05-14T11:12:38.478Z,21.18
2023-05-14T11:15:11.049Z,21.63
2023-05-14T11:17:40.305Z,22.02
2023-05-14T11:20:08.800Z,23.28
2023-05-14T11:22:36.806Z,23.33
2023-05-14T11:25:04.393Z,24.03
2023-05-14T11:27:34.236Z,24.07
2023-05-14T11:30:03.961Z,23.51
2023-05-14T11:32:35.380Z,24.01
2023-05-14T11:35:02.354Z,25.28
2023-05-14T11:37:30.659Z,25.07
2023-05-14T11:40:01.333Z,24.41
2023-05-14T11:42:28.171Z,23.05
2023-05-14T11:44:54.828Z,23.51
2023-05-14T11:47:22.251Z,23.59
2023-05-14T11:49:49.362Z,22.41
2023-05-14T11:52:19.352Z,22.84
2023-05-14T11:54:46.344Z,22.11
2023-05-14T11:57:16.392Z,20.88
2023-05-14T11:59:43.328Z,20.91
2023-05-14T12:02:15.118Z,20.75
2023-05-14T12:04:42.886Z,20.44
2023-05-14T12:07:11.929Z,20.40
2023-05-14T12:09:45.074Z,20.21
2023-05-14T12:12:12.759Z,20.29
2023-05-14T12:14:42.670Z,20.25
2023-05-14T12:17:15.115Z,21.02
2023-05-14T12:19:43.615Z,22.11
2023-05-14T12:22:11.735Z,21.85
2023-05-14T12:24:39.273Z,21.87
2023-05-14T12:27:07.442Z,21.87
2023-05-14T12:29:40.909Z,22.11
2023-05-14T12:32:09.404Z,21.34
2023-05-14T12:34:37.687Z,21.38
2023-05-14T12:37:05.500Z,22.25
2023-05-14T12:39:34.165Z,21.93
2023-05-14T12:42:01.555Z,22.13
2023-05-14T12:44:28.355Z,22.32
2023-05-14T12:46:55.229Z,22.14
2023-05-14T12:49:21.841Z,22.70
2023-05-14T12:51:48.777Z,22.82
2023-05-14T12:54:16.776Z,23.21
2023-05-14T12:56:43.450Z,23.06
2023-05-14T12:59:10.607Z,24.42
2023-05-14T13:01:38.245Z,25.48
2023-05-14T13:04:05.814Z,23.60
2023-05-14T13:06:32.765Z,24.82
2023-05-14T13:09:01.776Z,25.39
2023-05-14T13:11:30.320Z,24.69
2023-05-14T13:13:57.392Z,26.23
2023-05-14T13:16:25.457Z,25.51
2023-05-14T13:18:52.179Z,25.96
2023-05-14T13:21:22.403Z,25.24
2023-05-14T13:23:49.225Z,27.35
2023-05-14T13:26:16.203Z,27.13
2023-05-14T13:28:43.219Z,27.26
2023-05-14T13:31:16.897Z,28.01
2023-05-14T13:33:44.552Z,26.55
2023-05-14T13:36:14.468Z,27.26
2023-05-14T13:38:41.482Z,27.59
2023-05-14T13:41:08.482Z,25.99
2023-05-14T13:43:35.841Z,26.01
2023-05-14T13:46:05.306Z,26.21
2023-05-14T13:48:32.288Z,25.65
2023-05-14T13:50:59.294Z,26.62
2023-05-14T13:53:26.125Z,27.87
2023-05-14T13:56:00.820Z,25.61
2023-05-14T13:58:28.642Z,27.08
2023-05-14T14:00:55.393Z,27.94
2023-05-14T14:03:22.216Z,26.70
2023-05-14T14:05:48.934Z,27.76
2023-05-14T14:08:23.294Z,26.93
2023-05-14T14:10:52.151Z,25.07
2023-05-14T14:13:18.795Z,25.11
2023-05-14T14:15:45.647Z,25.83
2023-05-14T14:18:12.405Z,25.80
2023-05-14T14:20:39.032Z,25.75
2023-05-14T14:23:05.758Z,25.36
2023-05-14T14:25:32.402Z,23.73
2023-05-14T14:27:59.114Z,23.85
2023-05-14T14:30:25.760Z,24.02
2023-05-14T14:32:52.533Z,23.65
2023-05-14T14:35:20.026Z,22.69
2023-05-14T14:37:52.203Z,22.72
2023-05-14T14:40:19.130Z,22.81
2023-05-14T14:42:45.795Z,22.19
2023-05-14T14:45:12.715Z,21.71
2023-05-14T14:47:43.996Z,20.85
2023-05-14T14:50:11.213Z,21.66
2023-05-14T14:52:38.040Z,21.46
2023-05-14T14:55:05.182Z,21.49
2023-05-14T14:57:31.909Z,21.20
2023-05-14T14:59:59.822Z,21.22
2023-05-14T15:02:27.668Z,21.22
2023-05-14T15:04:54.785Z,21.28
2023-05-14T15:07:22.176Z,20.35
2023-05-14T15:09:49.214Z,21.22
2023-05-14T15:12:17.094Z,21.21
2023-05-14T15:14:43.714Z,21.16
2023-05-14T15:17:10.627Z,20.97
2023-05-14T15:19:37.340Z,21.00
2023-05-14T15:22:04.523Z,20.78
2023-05-14T15:24:31.162Z,20.68
2023-05-14T15:26:57.777Z,20.69
2023-05-14T15:29:24.385Z,20.81
2023-05-14T15:31:51.142Z,21.51
2023-05-14T15:34:17.932Z,20.80
2023-05-14T15:36:44.462Z,20.52
2023-05-14T15:39:11.265Z,20.93
2023-05-14T15:41:38.058Z,20.46
2023-05-14T15:44:04.970Z,20.30
2023-05-14T15:46:32.226Z,20.30
2023-05-14T15:48:59.102Z,20.64
2023-05-14T15:51:25.640Z,21.09
2023-05-14T15:53:55.475Z,21.77
2023-05-14T15:56:22.893Z,21.52
2023-05-14T15:58:49.829Z,22.24
2023-05-14T16:01:16.712Z,22.47
2023-05-14T16:03:43.668Z,22.70
2023-05-14T16:06:11.607Z,22.86
2023-05-14T16:08:38.562Z,21.10
2023-05-14T16:11:06.319Z,20.78
2023-05-14T16:13:33.348Z,21.17
2023-05-14T16:16:00.236Z,21.49
2023-05-14T16:18:26.954Z,20.58
2023-05-14T16:20:53.643Z,21.21
2023-05-14T16:23:20.401Z,21.19
2023-05-14T16:25:47.195Z,20.69
2023-05-14T16:28:13.926Z,20.66
2023-05-14T16:30:40.470Z,20.67
2023-05-14T16:33:07.442Z,19.83
2023-05-14T16:35:34.184Z,19.25
2023-05-14T16:38:01.602Z,19.56
2023-05-14T16:40:28.375Z,19.60
2023-05-14T16:42:54.911Z,19.92
2023-05-14T16:45:21.704Z,19.44
2023-05-14T16:47:48.755Z,19.73
2023-05-14T16:50:15.421Z,19.73
2023-05-14T16:52:42.109Z,19.39
2023-05-14T16:55:09.217Z,19.04
2023-05-14T16:57:35.829Z,19.24
2023-05-14T17:00:05.977Z,19.07
2023-05-14T17:02:33.748Z,19.12
2023-05-14T17:05:00.576Z,19.09
2023-05-14T17:07:27.423Z,19.32
2023-05-14T17:09:54.131Z,19.08
2023-05-14T17:12:20.875Z,18.84
2023-05-14T17:14:47.501Z,19.01
2023-05-14T17:17:14.708Z,19.35
2023-05-14T17:19:42.408Z,19.38
2023-05-14T17:22:09.117Z,19.31
2023-05-14T17:24:36.503Z,19.28
2023-05-14T17:27:03.450Z,19.47
2023-05-14T17:29:30.122Z,19.56
2023-05-14T17:31:56.972Z,19.56
2023-05-14T17:34:24.160Z,19.40
2023-05-14T17:36:50.962Z,19.68
2023-05-14T17:39:17.600Z,19.76
2023-05-14T17:41:44.303Z,19.89
2023-05-14T17:44:12.820Z,19.90
2023-05-14T17:46:41.541Z,20.26
2023-05-14T17:49:08.352Z,20.38
2023-05-14T17:51:34.993Z,20.46
2023-05-14T17:54:01.843Z,20.69
2023-05-14T17:56:29.578Z,20.77
2023-05-14T17:58:56.257Z,20.48
2023-05-14T18:01:22.969Z,20.48
2023-05-14T18:03:49.889Z,20.03
2023-05-14T18:06:16.868Z,19.64
2023-05-14T18:08:43.656Z,19.38
2023-05-14T18:11:10.199Z,19.46
2023-05-14T18:13:36.818Z,19.72
2023-05-14T18:16:03.836Z,19.73
2023-05-14T18:18:30.890Z,19.55
2023-05-14T18:20:58.181Z,19.65
2023-05-14T18:23:24.830Z,19.79
2023-05-14T18:25:51.536Z,19.83
2023-05-14T18:28:18.958Z,19.96
2023-05-14T18:30:45.637Z,19.89
2023-05-14T18:33:12.431Z,19.88
2023-05-14T18:35:39.241Z,19.96
2023-05-14T18:38:07.870Z,19.91
2023-05-14T18:40:34.797Z,19.65
2023-05-14T18:43:01.434Z,19.68
2023-05-14T18:45:28.106Z,19.61
2023-05-14T18:47:55.255Z,19.65
2023-05-14T18:50:21.883Z,19.58
2023-05-14T18:52:48.512Z,19.65
2023-05-14T18:55:15.245Z,19.53
2023-05-14T18:57:41.887Z,19.46
2023-05-14T19:00:09.069Z,19.42
2023-05-14T19:02:36.059Z,19.31
2023-05-14T19:05:02.763Z,19.31
2023-05-14T19:07:30.414Z,19.24
2023-05-14T19:09:57.028Z,19.18
2023-05-14T19:12:23.789Z,19.22
2023-05-14T19:14:50.565Z,19.13
2023-05-14T19:17:18.591Z,19.20
2023-05-14T19:19:47.008Z,19.18
2023-05-14T19:22:13.671Z,19.06
2023-05-14T19:24:40.408Z,19.03
2023-05-14T19:27:07.756Z,19.07
2023-05-14T19:29:36.655Z,18.94
2023-05-14T19:32:04.706Z,18.87
2023-05-14T19:34:31.575Z,18.80
2023-05-14T19:36:58.208Z,18.85
2023-05-14T19:39:24.905Z,18.82
2023-05-14T19:41:51.512Z,18.95
2023-05-14T19:44:18.134Z,18.90
2023-05-14T19:46:45.129Z,18.84
2023-05-14T19:49:12.188Z,18.88
2023-05-14T19:51:39.380Z,18.83
2023-05-14T19:54:06.665Z,18.77
2023-05-14T19:56:33.442Z,18.84
2023-05-14T19:58:59.981Z,18.68
2023-05-14T20:01:26.852Z,18.79
2023-05-14T20:03:53.475Z,18.74
2023-05-14T20:06:20.331Z,18.72
2023-05-14T20:08:46.919Z,18.69
2023-05-14T20:11:15.524Z,18.56
2023-05-14T20:13:42.108Z,18.60
2023-05-14T20:16:08.792Z,18.59
2023-05-14T20:18:35.541Z,18.21
2023-05-14T20:21:02.176Z,18.02
2023-05-14T20:23:28.742Z,17.83
2023-05-14T20:25:55.715Z,17.77
2023-05-14T20:28:22.314Z,17.21
2023-05-14T20:30:49.008Z,16.74
2023-05-14T20:33:15.999Z,16.42
2023-05-14T20:35:44.019Z,16.50
2023-05-14T20:38:12.737Z,16.52
2023-05-14T20:40:40.004Z,16.59
2023-05-14T20:43:06.577Z,16.49
2023-05-14T20:45:33.404Z,16.60
2023-05-14T20:47:59.979Z,16.65
2023-05-14T20:50:27.792Z,16.68
2023-05-14T20:52:55.141Z,16.71
2023-05-14T20:55:21.781Z,16.67
2023-05-14T20:57:49.643Z,16.51
2023-05-14T21:00:16.672Z,16.56
2023-05-14T21:02:43.519Z,16.51
2023-05-14T21:05:10.370Z,16.50
2023-05-14T21:07:37.360Z,16.59
2023-05-14T21:10:04.605Z,16.57
2023-05-14T21:12:31.229Z,16.60
2023-05-14T21:14:57.796Z,16.60
2023-05-14T21:17:24.661Z,16.60
2023-05-14T21:19:51.435Z,16.56
2023-05-14T21:22:18.103Z,16.52
2023-05-14T21:24:44.796Z,16.64
2023-05-14T21:27:11.573Z,16.51
2023-05-14T21:29:39.616Z,16.37
2023-05-14T21:32:06.911Z,16.43
2023-05-14T21:34:33.766Z,16.35
2023-05-14T21:37:00.803Z,16.31
2023-05-14T21:39:27.464Z,16.15
2023-05-14T21:41:54.127Z,16.16
2023-05-14T21:44:21.779Z,16.25
2023-05-14T21:46:48.358Z,16.18
2023-05-14T21:49:14.905Z,16.10
2023-05-14T21:51:42.686Z,16.09
2023-05-14T21:54:09.706Z,15.96
2023-05-14T21:56:37.212Z,15.95
2023-05-14T21:59:03.935Z,15.88
2023-05-14T22:01:31.639Z,15.83
2023-05-14T22:03:59.144Z,15.96
2023-05-14T22:06:25.852Z,15.85
2023-05-14T22:08:52.457Z,15.84
2023-05-14T22:11:19.042Z,15.74
2023-05-14T22:13:45.609Z,15.81
2023-05-14T22:16:13.691Z,15.70
2023-05-14T22:18:41.599Z,15.70
2023-05-14T22:21:08.417Z,15.62
2023-05-14T22:23:35.158Z,15.57
2023-05-14T22:26:01.788Z,15.61
2023-05-14T22:28:28.470Z,15.51
2023-05-14T22:30:56.480Z,15.41
2023-05-14T22:33:23.230Z,15.21
2023-05-14T22:35:49.871Z,15.27
2023-05-14T22:38:16.449Z,15.26
2023-05-14T22:40:43.164Z,15.13
2023-05-14T22:43:09.762Z,15.08
2023-05-14T22:45:36.426Z,14.94
2023-05-14T22:48:03.160Z,14.97
2023-05-14T22:50:29.784Z,14.90
2023-05-14T22:52:56.392Z,14.86
2023-05-14T22:55:23.459Z,14.83
2023-05-14T22:57:50.610Z,14.86
2023-05-14T23:00:17.489Z,14.83
2023-05-14T23:02:44.394Z,14.65
2023-05-14T23:05:11.080Z,14.84
2023-05-14T23:07:37.785Z,14.64
2023-05-14T23:10:05.105Z,14.65
2023-05-14T23:12:31.757Z,14.68
2023-05-14T23:14:59.146Z,14.68
2023-05-14T23:17:25.960Z,14.58
2023-05-14T23:19:52.918Z,14.56
2023-05-14T23:22:20.322Z,14.54
2023-05-14T23:24:46.899Z,14.42
2023-05-14T23:27:13.532Z,14.48
2023-05-14T23:29:40.261Z,14.49
2023-05-14T23:32:07.389Z,14.45
2023-05-14T23:34:34.665Z,14.43
2023-05-14T23:37:01.482Z,14.34
2023-05-14T23:39:28.160Z,14.31
2023-05-14T23:41:54.773Z,14.21
2023-05-14T23:44:21.496Z,14.16
2023-05-14T23:46:48.169Z,14.03
2023-05-14T23:49:14.933Z,14.06
2023-05-14T23:51:41.595Z,13.90
2023-05-14T23:54:08.321Z,13.80
2023-05-14T23:56:35.976Z,13.72
2023-05-14T23:59:03.592Z,13.78
